Time;durP1;ratioP1;P1;durP2;ratioP2;P2;SDS_P1;SDS_P2;PMS_P1;PMS_P2;Temp;Humidity;BMP_temperature;BMP_pressure;BME280_temperature;BME280_humidity;BME280_pressure;Samples;Min_cycle;Max_cycle;Signal;HPM_P1;HPM_P2
2023/12/06 08:44:04;;;;;;;34.05;15.73;;;;;;;;;;6716944;23;20050;-96
2023/12/06 08:57:32;;;;;;;27.52;16.20;;;;;;;;;;6578780;23;20355;-96
2023/12/06 09:21:29;;;;;;;28.75;16.95;;;;;;;;;;6188485;28;20030;-96
2023/12/06 09:24:32;;;;;;;29.67;17.52;;;;;;;;;;6100542;29;20088;-96
2023/12/06 09:30:54;;;;;;;28.13;16.67;;;;;;;;;;6079678;29;20071;-96
2023/12/06 09:33:59;;;;;;;31.33;17.42;;;;;;;;;;6126682;29;20052;-97
2023/12/06 09:37:22;;;;;;;25.10;17.27;;;;;;;;;;6084615;29;20108;-96
2023/12/06 09:48:16;;;;;;;29.35;17.60;;;;;;;;;;6045467;29;20190;-96
2023/12/06 10:01:38;;;;;;;28.25;17.58;;;;;;;;;;5914922;29;20044;-96
2023/12/06 10:04:41;;;;;;;26.92;16.80;;;;;;;;;;5969048;29;20164;-96
2023/12/06 10:15:12;;;;;;;77.70;37.22;;;;;;;;;;5963249;29;20173;-96
2023/12/06 10:18:14;;;;;;;71.95;33.13;;;;;;;;;;5977694;29;20064;-95
2023/12/06 10:21:16;;;;;;;33.15;20.13;;;;;;;;;;6012632;29;20227;-95
2023/12/06 10:24:20;;;;;;;31.95;18.63;;;;;;;;;;6016747;29;20125;-95
2023/12/06 10:27:25;;;;;;;40.30;22.08;;;;;;;;;;6003198;29;20054;-94
2023/12/06 10:30:27;;;;;;;43.83;24.02;;;;;;;;;;6025896;29;20049;-95
2023/12/06 10:33:31;;;;;;;28.33;18.42;;;;;;;;;;6120103;29;20052;-96
2023/12/06 10:36:38;;;;;;;29.75;16.73;;;;;;;;;;6168739;28;20043;-96
2023/12/06 10:43:20;;;;;;;25.50;16.02;;;;;;;;;;6105410;28;20355;-97
2023/12/06 10:46:22;;;;;;;26.10;15.93;;;;;;;;;;6200991;28;20055;-96
2023/12/06 10:52:48;;;;;;;22.98;14.02;;;;;;;;;;6177427;28;20055;-97
2023/12/06 10:59:10;;;;;;;26.17;15.30;;;;;;;;;;6187802;28;20366;-96
2023/12/06 11:02:12;;;;;;;25.00;16.38;;;;;;;;;;6187805;28;20056;-96
2023/12/06 11:05:14;;;;;;;26.38;15.68;;;;;;;;;;6184396;28;20106;-96
2023/12/06 11:08:39;;;;;;;27.10;15.93;;;;;;;;;;6188460;28;20046;-96
2023/12/06 11:11:49;;;;;;;28.40;16.40;;;;;;;;;;6185516;28;20129;-96
2023/12/06 11:15:04;;;;;;;23.60;16.20;;;;;;;;;;6190327;28;20046;-96
2023/12/06 11:18:14;;;;;;;26.42;16.77;;;;;;;;;;6189012;28;20057;-96
2023/12/06 11:21:19;;;;;;;23.38;16.40;;;;;;;;;;6160133;28;20069;-96
2023/12/06 11:24:23;;;;;;;28.65;17.15;;;;;;;;;;6181122;28;20113;-96
2023/12/06 11:27:27;;;;;;;26.77;17.25;;;;;;;;;;6157419;28;20065;-96
2023/12/06 11:33:58;;;;;;;26.23;15.05;;;;;;;;;;6180462;28;20055;-96
2023/12/06 11:37:03;;;;;;;28.60;16.20;;;;;;;;;;6179447;28;20049;-96
2023/12/06 11:40:17;;;;;;;24.80;15.57;;;;;;;;;;6198472;28;20077;-96
2023/12/06 11:43:39;;;;;;;22.58;16.27;;;;;;;;;;6180050;28;20046;-96
2023/12/06 11:46:48;;;;;;;25.02;15.70;;;;;;;;;;6184893;28;20051;-96
2023/12/06 11:49:53;;;;;;;25.85;15.77;;;;;;;;;;6186239;28;20047;-95
2023/12/06 11:52:56;;;;;;;22.90;14.50;;;;;;;;;;6180243;28;20046;-96
2023/12/06 11:55:58;;;;;;;20.73;14.88;;;;;;;;;;6186626;28;20047;-95
2023/12/06 11:59:02;;;;;;;22.42;14.88;;;;;;;;;;6183413;28;20043;-94
2023/12/06 12:02:07;;;;;;;24.40;14.07;;;;;;;;;;6191206;28;20042;-96
2023/12/06 12:05:09;;;;;;;21.15;13.98;;;;;;;;;;6181455;28;20077;-96
2023/12/06 12:08:12;;;;;;;21.17;15.30;;;;;;;;;;6186411;28;20046;-96
2023/12/06 12:11:13;;;;;;;26.10;14.85;;;;;;;;;;6187642;28;20068;-96
2023/12/06 12:14:17;;;;;;;22.10;14.60;;;;;;;;;;6185537;28;20042;-96
2023/12/06 12:17:20;;;;;;;21.85;15.02;;;;;;;;;;6181438;28;20054;-96
2023/12/06 12:20:22;;;;;;;23.77;14.15;;;;;;;;;;6184543;28;20327;-95
2023/12/06 12:23:24;;;;;;;21.00;15.07;;;;;;;;;;6185662;28;20247;-95
2023/12/06 12:26:26;;;;;;;22.27;15.70;;;;;;;;;;6183585;28;20050;-96
2023/12/06 12:29:29;;;;;;;22.77;16.05;;;;;;;;;;6184094;28;20071;-96
2023/12/06 12:32:32;;;;;;;21.13;14.75;;;;;;;;;;6184367;28;20121;-95
2023/12/06 12:35:33;;;;;;;19.98;14.65;;;;;;;;;;6185233;28;20249;-95
2023/12/06 12:38:36;;;;;;;23.17;15.27;;;;;;;;;;6181650;28;20130;-93
2023/12/06 12:41:38;;;;;;;20.15;13.75;;;;;;;;;;6184804;28;20122;-93
2023/12/06 12:44:41;;;;;;;21.27;13.70;;;;;;;;;;6183475;28;20113;-94
2023/12/06 12:47:44;;;;;;;20.50;13.50;;;;;;;;;;6183881;28;20057;-95
2023/12/06 12:50:46;;;;;;;13.73;10.93;;;;;;;;;;6184581;28;20054;-96
2023/12/06 12:53:48;;;;;;;13.80;10.32;;;;;;;;;;6184337;28;20066;-94
2023/12/06 12:56:50;;;;;;;15.20;10.75;;;;;;;;;;6176207;28;20058;-95
2023/12/06 12:59:55;;;;;;;14.98;10.45;;;;;;;;;;6181241;28;20049;-95
2023/12/06 13:02:58;;;;;;;15.35;10.75;;;;;;;;;;6182311;28;20051;-94
2023/12/06 13:06:00;;;;;;;15.35;11.75;;;;;;;;;;6184696;28;20073;-93
2023/12/06 13:09:02;;;;;;;21.30;14.25;;;;;;;;;;6183224;28;20057;-94
2023/12/06 13:12:05;;;;;;;26.98;17.23;;;;;;;;;;6184474;28;20086;-94
2023/12/06 13:15:09;;;;;;;31.02;19.10;;;;;;;;;;6182868;28;20047;-94
2023/12/06 13:18:11;;;;;;;28.80;18.25;;;;;;;;;;6185563;28;20065;-94
2023/12/06 13:21:13;;;;;;;24.52;17.73;;;;;;;;;;6184543;28;20066;-94
2023/12/06 13:24:15;;;;;;;27.27;18.25;;;;;;;;;;6183023;28;20122;-94
2023/12/06 13:27:17;;;;;;;31.13;19.30;;;;;;;;;;6168913;28;20055;-94
2023/12/06 13:30:21;;;;;;;28.48;18.67;;;;;;;;;;6187955;28;20047;-93
2023/12/06 13:33:23;;;;;;;25.98;18.25;;;;;;;;;;6183588;28;20059;-91
2023/12/06 13:36:24;;;;;;;28.80;19.08;;;;;;;;;;6184341;28;20053;-95
2023/12/06 13:39:26;;;;;;;24.73;17.90;;;;;;;;;;6180850;28;20058;-94
2023/12/06 13:42:32;;;;;;;26.08;18.52;;;;;;;;;;6182516;28;20201;-92
2023/12/06 13:45:35;;;;;;;28.95;19.40;;;;;;;;;;6182475;28;20051;-94
2023/12/06 13:48:37;;;;;;;28.70;18.80;;;;;;;;;;6184171;28;20057;-92
2023/12/06 13:51:40;;;;;;;25.83;18.17;;;;;;;;;;6182824;28;20332;-93
2023/12/06 13:54:43;;;;;;;27.08;18.42;;;;;;;;;;6181537;28;20065;-93
2023/12/06 13:57:46;;;;;;;28.70;19.25;;;;;;;;;;6181163;28;20059;-92
2023/12/06 14:00:50;;;;;;;26.08;18.55;;;;;;;;;;6182613;28;20066;-91
2023/12/06 14:03:55;;;;;;;30.25;18.98;;;;;;;;;;6183968;28;20058;-93
2023/12/06 14:06:57;;;;;;;29.00;18.65;;;;;;;;;;6171690;28;20047;-93
2023/12/06 14:09:59;;;;;;;25.02;18.38;;;;;;;;;;6186816;28;20062;-93
2023/12/06 14:13:01;;;;;;;30.50;19.35;;;;;;;;;;6184307;28;20343;-93
2023/12/06 14:16:07;;;;;;;27.15;19.13;;;;;;;;;;6186775;28;20249;-94
2023/12/06 14:19:10;;;;;;;31.75;18.60;;;;;;;;;;6175192;28;20286;-93
2023/12/06 14:22:12;;;;;;;29.77;19.77;;;;;;;;;;6186333;28;20373;-92
2023/12/06 14:25:14;;;;;;;35.10;21.25;;;;;;;;;;6210847;28;20076;-92
2023/12/06 14:28:17;;;;;;;28.20;18.75;;;;;;;;;;6210938;28;20062;-93
2023/12/06 14:31:23;;;;;;;27.88;19.05;;;;;;;;;;6196048;28;20057;-95
2023/12/06 14:34:45;;;;;;;28.98;19.20;;;;;;;;;;6209280;28;20050;-95
2023/12/06 14:37:47;;;;;;;27.83;18.85;;;;;;;;;;6214444;28;20346;-92
2023/12/06 14:40:49;;;;;;;27.15;19.15;;;;;;;;;;6208180;28;20056;-93
2023/12/06 14:43:50;;;;;;;30.40;18.45;;;;;;;;;;6211063;28;20335;-94
2023/12/06 14:46:54;;;;;;;30.05;19.30;;;;;;;;;;6211341;28;20056;-94
2023/12/06 14:49:56;;;;;;;27.67;17.98;;;;;;;;;;6192419;28;20058;-94
2023/12/06 14:52:58;;;;;;;26.58;18.45;;;;;;;;;;6210238;28;20328;-94
2023/12/06 14:56:00;;;;;;;32.10;19.13;;;;;;;;;;6214093;28;20060;-95
2023/12/06 14:59:03;;;;;;;27.38;18.73;;;;;;;;;;6211801;28;20335;-96
2023/12/06 15:02:08;;;;;;;27.58;18.40;;;;;;;;;;6211254;28;20054;-96
2023/12/06 15:05:10;;;;;;;29.10;18.17;;;;;;;;;;6208144;28;20292;-95
2023/12/06 15:08:13;;;;;;;30.38;18.00;;;;;;;;;;6194058;28;20398;-95
2023/12/06 15:11:15;;;;;;;30.40;19.00;;;;;;;;;;6182237;28;20050;-93
2023/12/06 15:14:17;;;;;;;29.13;19.02;;;;;;;;;;6207522;28;20050;-95
2023/12/06 15:17:20;;;;;;;28.40;18.25;;;;;;;;;;6212092;28;20054;-94
2023/12/06 15:20:23;;;;;;;28.37;18.43;;;;;;;;;;6211219;28;20243;-95
2023/12/06 15:23:25;;;;;;;29.80;17.48;;;;;;;;;;6194930;28;20050;-95
2023/12/06 15:26:28;;;;;;;29.30;17.85;;;;;;;;;;6212683;28;20117;-95
2023/12/06 15:29:30;;;;;;;30.33;18.87;;;;;;;;;;6210634;28;20122;-95
2023/12/06 15:32:33;;;;;;;27.40;17.17;;;;;;;;;;6212051;28;20046;-95
2023/12/06 15:35:35;;;;;;;29.95;17.98;;;;;;;;;;6207126;28;20342;-94
2023/12/06 15:38:37;;;;;;;27.92;17.40;;;;;;;;;;6210791;28;20052;-95
2023/12/06 15:41:39;;;;;;;29.50;18.20;;;;;;;;;;6210546;28;20038;-95
2023/12/06 15:44:42;;;;;;;30.73;17.67;;;;;;;;;;6194302;28;20093;-95
2023/12/06 15:51:01;;;;;;;23.63;16.15;;;;;;;;;;6185174;28;20050;-94
2023/12/06 15:54:03;;;;;;;28.13;17.52;;;;;;;;;;6210809;28;20062;-93
2023/12/06 15:57:06;;;;;;;26.08;17.15;;;;;;;;;;6210354;28;20056;-95
2023/12/06 16:00:11;;;;;;;25.25;16.83;;;;;;;;;;6208761;28;20061;-96
2023/12/06 16:03:14;;;;;;;30.48;18.45;;;;;;;;;;6191506;28;20096;-95
2023/12/06 16:06:17;;;;;;;28.55;17.55;;;;;;;;;;6193147;28;20049;-94
2023/12/06 16:09:19;;;;;;;24.92;17.10;;;;;;;;;;6188595;28;20058;-96
2023/12/06 16:12:24;;;;;;;28.83;16.92;;;;;;;;;;6205209;28;20061;-94
2023/12/06 16:15:26;;;;;;;32.28;18.25;;;;;;;;;;6193762;28;20271;-93
2023/12/06 16:18:31;;;;;;;25.83;16.35;;;;;;;;;;6209042;28;20051;-94
2023/12/06 16:21:35;;;;;;;26.27;17.45;;;;;;;;;;6191114;28;20078;-95
2023/12/06 16:24:37;;;;;;;;;;;;;;;;;;6199490;28;20046;-93
2023/12/06 16:27:42;;;;;;;26.15;16.55;;;;;;;;;;6209442;28;19964;-95
2023/12/06 16:30:45;;;;;;;29.02;18.58;;;;;;;;;;6192825;28;20093;-94
2023/12/06 16:33:51;;;;;;;27.13;17.45;;;;;;;;;;6205461;28;20093;-93
2023/12/06 16:36:54;;;;;;;30.27;17.83;;;;;;;;;;6207012;28;20294;-94
2023/12/06 16:40:00;;;;;;;30.70;18.57;;;;;;;;;;6175384;28;20114;-93
2023/12/06 16:43:04;;;;;;;32.42;17.42;;;;;;;;;;6198405;28;20481;-94
2023/12/06 16:46:07;;;;;;;31.80;18.15;;;;;;;;;;6208815;28;20050;-95
2023/12/06 16:49:11;;;;;;;28.02;17.35;;;;;;;;;;6151770;28;20050;-95
2023/12/06 16:52:13;;;;;;;28.77;16.65;;;;;;;;;;6192890;28;20050;-96
2023/12/06 16:55:23;;;;;;;28.52;17.88;;;;;;;;;;6207662;28;20215;-94
2023/12/06 16:58:30;;;;;;;27.90;17.50;;;;;;;;;;6173598;28;20054;-95
2023/12/06 17:01:38;;;;;;;33.75;18.30;;;;;;;;;;6184393;28;20062;-95
2023/12/06 17:07:58;;;;;;;30.95;17.80;;;;;;;;;;6203199;28;20050;-95
2023/12/06 17:11:00;;;;;;;33.42;19.02;;;;;;;;;;6206235;28;20058;-96
2023/12/06 17:14:04;;;;;;;29.13;17.77;;;;;;;;;;6210576;28;20171;-95
2023/12/06 17:17:07;;;;;;;;;;;;;;;;;;6194159;28;20099;-95
2023/12/06 17:20:12;;;;;;;30.77;17.85;;;;;;;;;;6207569;28;19924;-95
2023/12/06 17:23:19;;;;;;;29.98;18.63;;;;;;;;;;6210097;28;20335;-95
2023/12/06 17:26:21;;;;;;;35.13;18.27;;;;;;;;;;6190897;28;20339;-96
2023/12/06 17:29:27;;;;;;;35.13;18.88;;;;;;;;;;6191668;28;20093;-95
2023/12/06 17:32:29;;;;;;;30.98;18.55;;;;;;;;;;6209084;28;20104;-95
2023/12/06 17:38:51;;;;;;;33.30;18.88;;;;;;;;;;6209738;28;20364;-96
2023/12/06 17:45:11;;;;;;;30.88;18.92;;;;;;;;;;6192299;28;20054;-96
2023/12/06 17:48:14;;;;;;;29.95;18.27;;;;;;;;;;6216944;28;20054;-96
2023/12/06 17:51:18;;;;;;;30.65;17.95;;;;;;;;;;6215148;28;20056;-96
2023/12/06 17:54:21;;;;;;;35.22;18.42;;;;;;;;;;6215679;28;20054;-95
2023/12/06 17:57:23;;;;;;;33.93;18.23;;;;;;;;;;6215247;28;20307;-95
2023/12/06 18:00:26;;;;;;;34.22;20.15;;;;;;;;;;6212396;28;20046;-96
2023/12/06 18:03:29;;;;;;;34.28;19.10;;;;;;;;;;6195860;28;20113;-96
2023/12/06 18:09:51;;;;;;;26.80;18.38;;;;;;;;;;6203376;28;20051;-96
2023/12/06 18:12:54;;;;;;;32.45;18.92;;;;;;;;;;6214273;28;20053;-96
2023/12/06 18:15:56;;;;;;;33.72;19.27;;;;;;;;;;6197974;28;20062;-96
2023/12/06 18:18:58;;;;;;;36.92;18.92;;;;;;;;;;6216027;28;20054;-96
2023/12/06 18:22:02;;;;;;;32.70;19.65;;;;;;;;;;6212952;28;20061;-96
2023/12/06 18:25:06;;;;;;;29.98;19.33;;;;;;;;;;6199865;28;20073;-96
2023/12/06 18:28:08;;;;;;;34.05;19.95;;;;;;;;;;6206106;28;20082;-96
2023/12/06 18:31:13;;;;;;;34.00;19.33;;;;;;;;;;6205974;28;20065;-96
2023/12/06 18:34:17;;;;;;;34.63;19.85;;;;;;;;;;6150039;28;20058;-96
2023/12/06 18:37:21;;;;;;;31.92;19.42;;;;;;;;;;6189463;28;20358;-96
2023/12/06 18:40:24;;;;;;;40.33;19.88;;;;;;;;;;6192237;28;20101;-96
2023/12/06 18:43:26;;;;;;;33.03;21.05;;;;;;;;;;6210166;28;20368;-96
2023/12/06 18:49:44;;;;;;;34.65;20.50;;;;;;;;;;6183633;28;20090;-96
2023/12/06 18:52:47;;;;;;;35.25;19.83;;;;;;;;;;6206316;28;20046;-96
2023/12/06 18:55:50;;;;;;;33.15;20.40;;;;;;;;;;6210459;28;20351;-96
2023/12/06 18:59:13;;;;;;;38.30;20.00;;;;;;;;;;6187329;28;20054;-96
2023/12/06 19:02:17;;;;;;;37.83;21.35;;;;;;;;;;6208391;28;20050;-96
2023/12/06 19:05:20;;;;;;;37.47;19.95;;;;;;;;;;6208002;28;20065;-96
2023/12/06 19:11:39;;;;;;;33.13;19.27;;;;;;;;;;6183398;28;20038;-96
2023/12/06 19:14:44;;;;;;;32.30;20.52;;;;;;;;;;6207095;28;20047;-96
2023/12/06 19:17:46;;;;;;;36.20;19.92;;;;;;;;;;6193688;28;20053;-95
2023/12/06 19:20:50;;;;;;;35.45;20.85;;;;;;;;;;6196768;28;20061;-96
2023/12/06 19:23:53;;;;;;;34.38;21.10;;;;;;;;;;6352573;23;20069;-96
2023/12/06 20:54:46;;;;;;;45.53;21.42;;;;;;;;;;6380795;23;20067;-96
2023/12/06 20:58:08;;;;;;;;;;;;;;;;;;6038833;29;20092;-96
2023/12/06 21:11:06;;;;;;;42.85;23.55;;;;;;;;;;6081008;29;20062;-96
2023/12/06 21:14:08;;;;;;;39.63;22.80;;;;;;;;;;6089899;29;20068;-96
2023/12/06 21:17:11;;;;;;;42.20;22.67;;;;;;;;;;6100601;29;20044;-96
2023/12/06 21:20:15;;;;;;;40.47;22.15;;;;;;;;;;6099931;29;20056;-96
2023/12/06 21:26:59;;;;;;;41.85;23.23;;;;;;;;;;6105909;29;20063;-96
2023/12/06 21:30:03;;;;;;;39.00;23.05;;;;;;;;;;6112757;29;20069;-96
2023/12/06 21:33:12;;;;;;;39.03;24.33;;;;;;;;;;6556778;23;20066;-96
2023/12/06 21:36:25;;;;;;;41.35;22.95;;;;;;;;;;6174247;28;20114;-96
2023/12/06 21:43:17;;;;;;;41.53;22.00;;;;;;;;;;6093103;29;20060;-96
2023/12/06 21:50:39;;;;;;;39.40;23.47;;;;;;;;;;6455150;23;20118;-97
2023/12/06 21:53:43;;;;;;;43.45;23.65;;;;;;;;;;6173056;28;20053;-96
2023/12/06 21:56:52;;;;;;;51.20;26.30;;;;;;;;;;6187232;28;20062;-96
2023/12/06 22:00:19;;;;;;;44.05;24.73;;;;;;;;;;6205656;23;20050;-96
2023/12/06 22:03:26;;;;;;;39.10;23.27;;;;;;;;;;6189761;28;20114;-96
2023/12/06 22:34:47;;;;;;;43.13;25.20;;;;;;;;;;6185717;28;20051;-96
2023/12/06 22:44:41;;;;;;;45.03;25.55;;;;;;;;;;6645958;23;20107;-98
2023/12/06 22:59:12;;;;;;;43.42;23.92;;;;;;;;;;6099963;29;20053;-96
2023/12/06 23:39:08;;;;;;;72.85;35.35;;;;;;;;;;5960552;29;20066;-96
2023/12/06 23:42:10;;;;;;;100.78;46.22;;;;;;;;;;5976308;29;20055;-94
2023/12/06 23:45:11;;;;;;;64.88;34.95;;;;;;;;;;5975132;29;20062;-96
2023/12/06 23:48:13;;;;;;;59.60;32.30;;;;;;;;;;6045955;29;20045;-95
